createdAt,value
2023-11-01T00:00:36.976Z,10.07
2023-11-01T00:01:38.452Z,2.87
2023-11-01T00:02:40.125Z,4.77
2023-11-01T00:03:41.629Z,3.80
2023-11-01T00:04:43.142Z,4.97
2023-11-01T00:05:44.789Z,3.57
2023-11-01T00:06:46.202Z,3.13
2023-11-01T00:07:47.592Z,5.87
2023-11-01T00:08:49.057Z,2.60
2023-11-01T00:09:50.410Z,4.53
2023-11-01T00:10:51.866Z,3.20
2023-11-01T00:11:53.466Z,4.07
2023-11-01T00:12:55.030Z,4.53
2023-11-01T00:13:56.593Z,5.07
2023-11-01T00:14:58.987Z,5.70
2023-11-01T00:16:00.500Z,6.43
2023-11-01T00:17:02.075Z,3.60
2023-11-01T00:18:03.670Z,3.70
2023-11-01T00:19:06.339Z,3.53
2023-11-01T00:20:08.117Z,4.50
2023-11-01T00:21:09.734Z,4.23
2023-11-01T00:22:11.349Z,3.70
2023-11-01T00:23:12.899Z,4.73
2023-11-01T00:24:14.348Z,4.10
2023-11-01T00:25:16.009Z,5.03
2023-11-01T00:26:17.746Z,3.03
2023-11-01T00:27:22.662Z,2.83
2023-11-01T00:28:24.060Z,5.80
2023-11-01T00:29:25.508Z,3.00
2023-11-01T00:30:27.354Z,5.50
2023-11-01T00:31:28.784Z,3.33
2023-11-01T00:32:30.388Z,4.10
2023-11-01T00:33:31.891Z,4.27
2023-11-01T00:34:33.450Z,4.43
2023-11-01T00:35:34.877Z,5.97
2023-11-01T00:36:36.349Z,5.07
2023-11-01T00:37:37.771Z,3.67
2023-11-01T00:38:39.226Z,5.47
2023-11-01T00:39:40.906Z,3.53
2023-11-01T00:40:42.365Z,7.07
2023-11-01T00:41:43.850Z,4.37
2023-11-01T00:42:45.781Z,7.40
2023-11-01T00:43:47.165Z,3.37
2023-11-01T00:44:48.586Z,4.77
2023-11-01T00:45:49.980Z,3.73
2023-11-01T00:46:51.725Z,6.83
2023-11-01T00:47:53.197Z,7.33
2023-11-01T00:48:55.047Z,3.67
2023-11-01T00:49:56.592Z,3.40
2023-11-01T00:50:58.021Z,4.60
2023-11-01T00:51:59.459Z,7.83
2023-11-01T00:53:00.816Z,4.20
2023-11-01T00:54:02.431Z,3.83
2023-11-01T00:55:04.905Z,3.93
2023-11-01T00:56:06.602Z,3.60
2023-11-01T00:57:08.065Z,7.00
2023-11-01T00:58:09.444Z,4.63
2023-11-01T00:59:10.931Z,5.20
2023-11-01T01:00:12.531Z,4.50
2023-11-01T01:01:13.943Z,5.33
2023-11-01T01:02:15.340Z,3.13
2023-11-01T01:03:17.603Z,6.73
2023-11-01T01:04:19.256Z,5.13
2023-11-01T01:05:20.801Z,5.67
2023-11-01T01:06:22.318Z,4.30
2023-11-01T01:07:23.687Z,6.57
2023-11-01T01:08:26.215Z,5.80
2023-11-01T01:09:28.624Z,4.20
2023-11-01T01:10:30.410Z,5.60
2023-11-01T01:11:31.977Z,2.47
2023-11-01T01:12:33.461Z,4.10
2023-11-01T01:13:34.908Z,5.87
2023-11-01T01:14:36.336Z,5.67
2023-11-01T01:15:38.442Z,4.23
2023-11-01T01:16:39.894Z,4.20
2023-11-01T01:17:41.467Z,5.17
2023-11-01T01:18:43.626Z,3.00
2023-11-01T01:19:45.597Z,3.77
2023-11-01T01:20:47.717Z,5.80
2023-11-01T01:21:52.306Z,4.60
2023-11-01T01:22:54.144Z,5.13
2023-11-01T01:23:55.786Z,4.50
2023-11-01T01:24:57.296Z,3.27
2023-11-01T01:25:58.649Z,4.43
2023-11-01T01:27:00.088Z,5.23
2023-11-01T01:28:01.548Z,2.83
2023-11-01T01:29:03.263Z,5.03
2023-11-01T01:30:04.966Z,3.83
2023-11-01T01:31:06.737Z,3.60
2023-11-01T01:32:08.742Z,3.00
2023-11-01T01:33:10.193Z,4.93
2023-11-01T01:34:11.676Z,5.00
2023-11-01T01:35:14.303Z,3.80
2023-11-01T01:36:15.818Z,2.93
2023-11-01T01:37:17.403Z,6.20
2023-11-01T01:38:18.842Z,5.87
2023-11-01T01:39:21.063Z,6.30
2023-11-01T01:40:22.454Z,5.67
2023-11-01T01:41:23.900Z,5.03
2023-11-01T01:42:25.383Z,4.57
2023-11-01T01:43:27.002Z,5.20
2023-11-01T01:44:28.433Z,5.33
2023-11-01T01:45:30.049Z,6.20
2023-11-01T01:46:31.544Z,6.17
2023-11-01T01:47:34.574Z,3.47
2023-11-01T01:48:36.551Z,8.73
2023-11-01T01:49:45.091Z,3.47
2023-11-01T01:50:47.384Z,5.03
2023-11-01T01:51:48.826Z,4.17
2023-11-01T01:52:50.309Z,3.57
2023-11-01T01:53:52.805Z,5.60
2023-11-01T01:54:54.893Z,5.17
2023-11-01T01:55:56.396Z,4.90
2023-11-01T01:56:57.844Z,4.10
2023-11-01T01:58:00.507Z,4.63
2023-11-01T01:59:02.081Z,4.40
2023-11-01T02:00:03.913Z,4.90
2023-11-01T02:01:14.696Z,6.30
2023-11-01T02:02:18.721Z,3.27
2023-11-01T02:03:20.283Z,8.10
2023-11-01T02:04:21.867Z,6.13
2023-11-01T02:05:23.546Z,3.23
2023-11-01T02:06:25.154Z,5.97
2023-11-01T02:07:27.384Z,5.23
2023-11-01T02:08:29.024Z,3.77
2023-11-01T02:09:30.601Z,4.07
2023-11-01T02:10:32.111Z,4.33
2023-11-01T02:11:36.471Z,5.03
2023-11-01T02:12:37.917Z,3.60
2023-11-01T02:13:39.339Z,6.27
2023-11-01T02:14:41.488Z,3.57
2023-11-01T02:15:43.776Z,4.23
2023-11-01T02:16:45.283Z,3.93
2023-11-01T02:17:46.808Z,6.70
2023-11-01T02:18:48.283Z,4.60
2023-11-01T02:19:49.755Z,6.50
2023-11-01T02:20:53.257Z,3.23
2023-11-01T02:21:54.871Z,5.00
2023-11-01T02:22:57.120Z,6.33
2023-11-01T02:23:58.672Z,3.40
2023-11-01T02:25:00.331Z,6.53
2023-11-01T02:26:02.228Z,4.80
2023-11-01T02:27:04.280Z,5.30
2023-11-01T02:28:06.288Z,6.77
2023-11-01T02:29:08.186Z,6.77
2023-11-01T02:30:17.836Z,5.27
2023-11-01T02:31:19.268Z,4.70
2023-11-01T02:32:22.302Z,5.23
2023-11-01T02:33:23.832Z,6.30
2023-11-01T02:34:25.281Z,7.23
2023-11-01T02:35:26.702Z,2.97
2023-11-01T02:36:28.099Z,3.97
2023-11-01T02:37:30.504Z,4.43
2023-11-01T02:38:31.906Z,3.47
2023-11-01T02:39:33.401Z,4.20
2023-11-01T02:40:36.193Z,4.53
2023-11-01T02:41:40.136Z,4.63
2023-11-01T02:42:42.502Z,4.40
2023-11-01T02:43:43.917Z,5.77
2023-11-01T02:44:45.465Z,4.87
2023-11-01T02:45:47.063Z,4.30
2023-11-01T02:46:48.865Z,3.10
2023-11-01T02:47:50.501Z,3.87
2023-11-01T02:48:51.991Z,5.43
2023-11-01T02:49:53.454Z,3.87
2023-11-01T02:50:54.958Z,5.87
2023-11-01T02:51:56.346Z,3.83
2023-11-01T02:52:57.839Z,4.60
2023-11-01T02:53:59.353Z,6.13
2023-11-01T02:55:01.771Z,4.07
2023-11-01T02:56:03.321Z,6.07
2023-11-01T02:57:04.699Z,5.03
2023-11-01T02:58:06.161Z,5.70
2023-11-01T02:59:07.538Z,3.70
2023-11-01T03:00:09.770Z,2.53
2023-11-01T03:01:11.838Z,3.77
2023-11-01T03:02:13.203Z,4.33
2023-11-01T03:03:14.714Z,3.23
2023-11-01T03:04:16.079Z,3.70
2023-11-01T03:05:18.181Z,4.67
2023-11-01T03:06:19.686Z,4.97
2023-11-01T03:07:21.084Z,5.90
2023-11-01T03:08:23.121Z,4.33
2023-11-01T03:09:24.550Z,7.47
2023-11-01T03:10:25.961Z,3.73
2023-11-01T03:11:27.373Z,5.27
2023-11-01T03:12:28.783Z,4.90
2023-11-01T03:13:30.764Z,5.20
2023-11-01T03:14:32.211Z,4.23
2023-11-01T03:15:33.662Z,4.03
2023-11-01T03:16:38.875Z,4.07
2023-11-01T03:17:40.583Z,5.50
2023-11-01T03:18:45.264Z,4.80
2023-11-01T03:19:46.800Z,6.67
2023-11-01T03:20:48.515Z,4.57
2023-11-01T03:21:50.003Z,3.53
2023-11-01T03:22:51.457Z,4.37
2023-11-01T03:23:52.834Z,8.13
2023-11-01T03:24:54.351Z,8.43
2023-11-01T03:25:55.829Z,4.33
2023-11-01T03:26:57.302Z,6.43
2023-11-01T03:27:58.651Z,3.73
2023-11-01T03:29:00.038Z,4.23
2023-11-01T03:30:01.606Z,4.97
2023-11-01T03:31:03.135Z,3.53
2023-11-01T03:32:04.622Z,6.17
2023-11-01T03:33:06.066Z,5.50
2023-11-01T03:34:07.507Z,5.80
2023-11-01T03:35:09.630Z,4.73
2023-11-01T03:36:11.118Z,4.77
2023-11-01T03:37:12.599Z,6.47
2023-11-01T03:38:14.058Z,5.07
2023-11-01T03:39:16.009Z,5.93
2023-11-01T03:40:17.526Z,4.30
2023-11-01T03:41:18.970Z,4.90
2023-11-01T03:42:22.141Z,6.10
2023-11-01T03:43:23.749Z,5.10
2023-11-01T03:44:25.220Z,7.20
2023-11-01T03:45:26.629Z,6.03
2023-11-01T03:46:28.028Z,4.77
2023-11-01T03:47:29.712Z,4.60
2023-11-01T03:48:31.885Z,4.57
2023-11-01T03:49:33.390Z,5.93
2023-11-01T03:50:44.897Z,5.07
2023-11-01T03:51:46.325Z,5.37
2023-11-01T03:52:47.857Z,4.53
2023-11-01T03:53:49.421Z,3.90
2023-11-01T03:54:50.860Z,4.87
2023-11-01T03:55:52.342Z,5.03
2023-11-01T03:56:54.027Z,5.83
2023-11-01T03:57:55.600Z,4.40
2023-11-01T03:58:59.027Z,4.97
2023-11-01T04:00:00.484Z,5.00
2023-11-01T04:01:02.047Z,7.27
2023-11-01T04:02:03.602Z,5.87
2023-11-01T04:03:05.133Z,3.50
2023-11-01T04:04:06.674Z,4.73
2023-11-01T04:05:08.370Z,4.33
2023-11-01T04:06:10.441Z,2.37
2023-11-01T04:07:11.832Z,3.97
2023-11-01T04:08:13.518Z,4.13
2023-11-01T04:09:14.943Z,5.43
2023-11-01T04:10:16.365Z,5.60
2023-11-01T04:11:17.884Z,5.93
2023-11-01T04:12:19.321Z,4.30
2023-11-01T04:13:20.723Z,5.40
2023-11-01T04:14:22.976Z,4.77
2023-11-01T04:15:24.423Z,4.53
2023-11-01T04:16:25.849Z,4.67
2023-11-01T04:17:27.399Z,3.00
2023-11-01T04:18:28.887Z,4.10
2023-11-01T04:19:30.321Z,3.70
2023-11-01T04:20:31.846Z,3.77
2023-11-01T04:21:33.500Z,4.47
2023-11-01T04:22:38.316Z,4.83
2023-11-01T04:23:39.760Z,2.80
2023-11-01T04:24:41.266Z,4.43
2023-11-01T04:25:42.780Z,3.70
2023-11-01T04:26:46.554Z,3.90
2023-11-01T04:27:48.116Z,4.50
2023-11-01T04:28:49.468Z,5.30
2023-11-01T04:29:55.333Z,4.27
2023-11-01T04:30:57.101Z,3.97
2023-11-01T04:31:59.216Z,6.60
2023-11-01T04:33:00.702Z,2.87
2023-11-01T04:34:02.220Z,5.90
2023-11-01T04:35:05.061Z,3.53
2023-11-01T04:36:09.491Z,6.00
2023-11-01T04:37:11.078Z,5.03
2023-11-01T04:38:12.544Z,4.43
2023-11-01T04:39:13.985Z,3.10
2023-11-01T04:40:15.951Z,4.60
2023-11-01T04:41:17.404Z,2.43
2023-11-01T04:42:19.071Z,4.80
2023-11-01T04:43:20.515Z,4.53
2023-11-01T04:44:21.974Z,6.37
2023-11-01T04:45:24.521Z,4.03
2023-11-01T04:46:26.157Z,3.27
2023-11-01T04:47:27.671Z,5.23
2023-11-01T04:48:29.436Z,4.27
2023-11-01T04:49:31.472Z,4.97
2023-11-01T04:50:33.057Z,5.77
2023-11-01T04:51:35.010Z,5.97
2023-11-01T04:52:36.984Z,4.23
2023-11-01T04:53:38.888Z,5.80
2023-11-01T04:54:40.379Z,4.27
2023-11-01T04:55:42.641Z,3.50
2023-11-01T04:56:44.813Z,4.70
2023-11-01T04:57:46.213Z,2.53
2023-11-01T04:58:47.741Z,4.63
2023-11-01T04:59:49.161Z,3.00
2023-11-01T05:00:51.437Z,5.63
2023-11-01T05:01:52.883Z,3.87
2023-11-01T05:02:54.490Z,2.90
2023-11-01T05:03:55.933Z,3.30
2023-11-01T05:04:57.319Z,4.93
2023-11-01T05:05:58.767Z,4.03
2023-11-01T05:07:00.363Z,3.43
2023-11-01T05:08:01.815Z,5.90
2023-11-01T05:09:06.006Z,5.40
2023-11-01T05:10:08.299Z,4.07
2023-11-01T05:11:09.678Z,2.43
2023-11-01T05:12:11.090Z,3.77
2023-11-01T05:13:12.898Z,5.07
2023-11-01T05:14:14.939Z,5.23
2023-11-01T05:15:16.467Z,2.70
2023-11-01T05:16:17.929Z,3.40
2023-11-01T05:17:19.377Z,4.87
2023-11-01T05:18:21.143Z,4.57
2023-11-01T05:19:22.571Z,4.67
2023-11-01T05:20:24.032Z,2.27
2023-11-01T05:21:25.472Z,3.33
2023-11-01T05:22:26.992Z,3.30
2023-11-01T05:23:29.869Z,2.63
2023-11-01T05:24:31.268Z,3.27
2023-11-01T05:25:32.814Z,4.67
2023-11-01T05:26:37.100Z,3.37
2023-11-01T05:27:38.547Z,2.87
2023-11-01T05:28:40.059Z,3.13
2023-11-01T05:29:41.924Z,3.97
2023-11-01T05:30:43.405Z,6.40
2023-11-01T05:31:44.960Z,3.33
2023-11-01T05:32:47.225Z,3.57
2023-11-01T05:33:48.945Z,5.10
2023-11-01T05:34:50.365Z,3.33
2023-11-01T05:35:52.065Z,5.30
2023-11-01T05:36:53.481Z,3.83
2023-11-01T05:37:54.974Z,4.10
2023-11-01T05:38:56.514Z,3.23
2023-11-01T05:39:58.053Z,5.17
2023-11-01T05:40:59.702Z,3.97
2023-11-01T05:42:01.104Z,7.20
2023-11-01T05:43:02.522Z,4.03
2023-11-01T05:44:04.014Z,6.53
2023-11-01T05:45:05.726Z,3.50
2023-11-01T05:46:07.617Z,2.13
2023-11-01T05:47:09.061Z,3.53
2023-11-01T05:48:10.794Z,5.47
2023-11-01T05:49:12.337Z,4.70
2023-11-01T05:50:13.736Z,4.50
2023-11-01T05:51:15.417Z,6.10
2023-11-01T05:52:16.838Z,6.10
2023-11-01T05:53:19.098Z,5.70
2023-11-01T05:54:20.679Z,3.43
2023-11-01T05:55:30.047Z,6.47
2023-11-01T05:56:39.530Z,3.87
2023-11-01T05:57:40.916Z,5.87
2023-11-01T05:58:42.305Z,3.97
2023-11-01T05:59:44.333Z,4.73
2023-11-01T06:00:46.201Z,7.23
2023-11-01T06:01:48.666Z,3.77
2023-11-01T06:02:50.237Z,5.00
2023-11-01T06:03:52.340Z,3.13
2023-11-01T06:04:53.989Z,5.77
2023-11-01T06:05:59.184Z,3.80
2023-11-01T06:07:03.712Z,5.53
2023-11-01T06:08:05.755Z,5.20
2023-11-01T06:09:07.191Z,4.93
2023-11-01T06:10:08.850Z,2.97
2023-11-01T06:11:10.278Z,4.43
2023-11-01T06:12:11.699Z,4.63
2023-11-01T06:13:13.127Z,3.93
2023-11-01T06:14:14.581Z,4.00
2023-11-01T06:15:16.169Z,5.07
2023-11-01T06:16:18.109Z,4.03
2023-11-01T06:17:20.449Z,8.77
2023-11-01T06:18:23.235Z,3.80
2023-11-01T06:19:26.417Z,5.43
2023-11-01T06:20:27.836Z,5.70
2023-11-01T06:21:29.273Z,6.90
2023-11-01T06:22:30.960Z,4.83
2023-11-01T06:23:32.520Z,4.93
2023-11-01T06:24:34.139Z,4.17
2023-11-01T06:25:35.767Z,3.23
2023-11-01T06:26:37.248Z,5.97
2023-11-01T06:27:39.853Z,4.20
2023-11-01T06:28:41.222Z,5.53
2023-11-01T06:29:45.680Z,3.50
2023-11-01T06:30:47.475Z,7.40
2023-11-01T06:31:48.920Z,3.33
2023-11-01T06:32:50.418Z,3.37
2023-11-01T06:33:51.944Z,5.93
2023-11-01T06:34:53.386Z,5.27
2023-11-01T06:35:54.875Z,3.57
2023-11-01T06:36:56.391Z,3.40
2023-11-01T06:37:58.115Z,4.07
2023-11-01T06:38:59.514Z,4.83
2023-11-01T06:40:01.496Z,4.53
2023-11-01T06:41:03.742Z,4.93
2023-11-01T06:42:05.192Z,3.17
2023-11-01T06:43:06.719Z,4.60
2023-11-01T06:44:10.075Z,4.60
2023-11-01T06:45:12.568Z,5.13
2023-11-01T06:46:14.012Z,9.00
2023-11-01T06:47:15.483Z,4.53
2023-11-01T06:48:16.974Z,5.37
2023-11-01T06:49:18.386Z,2.53
2023-11-01T06:50:19.890Z,4.80
2023-11-01T06:51:21.390Z,3.90
2023-11-01T06:52:22.837Z,4.97
2023-11-01T06:53:24.336Z,3.63
2023-11-01T06:54:25.762Z,6.17
2023-11-01T06:55:27.271Z,7.00
2023-11-01T06:56:28.784Z,4.13
2023-11-01T06:57:30.332Z,4.50
2023-11-01T06:58:31.741Z,5.40
2023-11-01T06:59:33.363Z,4.17
2023-11-01T07:00:35.237Z,4.33
2023-11-01T07:01:37.094Z,4.87
2023-11-01T07:02:38.646Z,3.10
2023-11-01T07:03:40.270Z,2.87
2023-11-01T07:04:41.904Z,4.10
2023-11-01T07:05:43.372Z,6.27
2023-11-01T07:06:44.840Z,6.27
2023-11-01T07:07:46.277Z,6.17
2023-11-01T07:08:48.686Z,7.17
2023-11-01T07:09:50.223Z,3.07
2023-11-01T07:10:51.672Z,5.97
2023-11-01T07:11:53.305Z,3.00
2023-11-01T07:12:54.789Z,5.47
2023-11-01T07:13:56.268Z,4.93
2023-11-01T07:14:57.876Z,4.97
2023-11-01T07:15:59.348Z,5.10
2023-11-01T07:17:00.762Z,4.97
2023-11-01T07:18:02.296Z,6.83
2023-11-01T07:19:03.818Z,3.33
2023-11-01T07:20:05.847Z,5.60
2023-11-01T07:21:10.169Z,4.23
2023-11-01T07:22:11.656Z,5.03
2023-11-01T07:23:13.265Z,5.37
2023-11-01T07:24:14.915Z,5.90
2023-11-01T07:25:16.356Z,6.03
2023-11-01T07:26:17.809Z,3.97
2023-11-01T07:27:19.197Z,5.37
2023-11-01T07:28:20.688Z,6.90
2023-11-01T07:29:22.312Z,5.47
2023-11-01T07:30:23.715Z,4.07
2023-11-01T07:31:25.181Z,4.77
2023-11-01T07:32:26.587Z,4.40
2023-11-01T07:33:28.111Z,6.10
2023-11-01T07:34:29.583Z,6.03
2023-11-01T07:35:31.126Z,5.60
2023-11-01T07:36:32.586Z,6.00
2023-11-01T07:37:34.031Z,4.40
2023-11-01T07:38:36.009Z,3.00
2023-11-01T07:39:37.405Z,4.70
2023-11-01T07:40:38.951Z,6.97
2023-11-01T07:41:40.521Z,5.70
2023-11-01T07:42:42.110Z,3.77
2023-11-01T07:43:43.656Z,4.27
2023-11-01T07:44:45.314Z,4.63
2023-11-01T07:45:49.737Z,4.60
2023-11-01T07:46:51.156Z,3.33
2023-11-01T07:47:52.925Z,4.77
2023-11-01T07:48:54.467Z,6.57
2023-11-01T07:49:56.078Z,4.03
2023-11-01T07:50:58.441Z,3.37
2023-11-01T07:52:01.136Z,3.30
2023-11-01T07:53:02.676Z,3.10
2023-11-01T07:54:04.229Z,5.57
2023-11-01T07:55:06.769Z,4.00
2023-11-01T07:56:08.236Z,6.63
2023-11-01T07:57:09.669Z,3.47
2023-11-01T07:58:11.107Z,4.83
2023-11-01T07:59:12.582Z,2.93
2023-11-01T08:00:14.555Z,6.17
2023-11-01T08:01:16.272Z,5.97
2023-11-01T08:02:17.670Z,2.57
2023-11-01T08:03:20.068Z,2.97
2023-11-01T08:04:21.741Z,5.00
2023-11-01T08:05:23.595Z,3.40
2023-11-01T08:06:25.034Z,4.10
2023-11-01T08:07:26.902Z,4.43
2023-11-01T08:08:28.464Z,3.43
2023-11-01T08:09:29.928Z,3.03
2023-11-01T08:10:31.408Z,7.30
2023-11-01T08:11:32.859Z,1.83
2023-11-01T08:12:34.352Z,3.33
2023-11-01T08:13:35.806Z,4.63
2023-11-01T08:14:38.211Z,2.90
2023-11-01T08:15:40.012Z,3.57
2023-11-01T08:16:41.897Z,2.73
2023-11-01T08:17:44.045Z,3.43
2023-11-01T08:18:45.713Z,2.80
2023-11-01T08:19:47.154Z,4.03
2023-11-01T08:20:48.626Z,3.83
2023-11-01T08:21:50.053Z,3.10
2023-11-01T08:22:52.457Z,3.77
2023-11-01T08:23:53.955Z,5.37
2023-11-01T08:24:55.433Z,5.33
2023-11-01T08:25:57.046Z,3.90
2023-11-01T08:26:58.479Z,5.10
2023-11-01T08:27:59.904Z,4.50
2023-11-01T08:29:01.506Z,4.70
2023-11-01T08:30:03.498Z,4.83
2023-11-01T08:31:04.993Z,6.33
2023-11-01T08:32:06.801Z,3.50
2023-11-01T08:33:08.363Z,3.30
2023-11-01T08:34:10.006Z,3.23
2023-11-01T08:35:11.548Z,6.40
2023-11-01T08:36:13.102Z,4.53
2023-11-01T08:37:15.006Z,4.17
2023-11-01T08:38:16.722Z,4.57
2023-11-01T08:39:18.117Z,6.13
2023-11-01T08:40:19.576Z,5.73
2023-11-01T08:41:20.977Z,5.07
2023-11-01T08:42:22.379Z,2.73
2023-11-01T08:43:23.808Z,4.10
2023-11-01T08:44:26.596Z,5.40
2023-11-01T08:45:28.072Z,4.30
2023-11-01T08:46:29.688Z,4.17
2023-11-01T08:47:41.080Z,3.70
2023-11-01T08:48:42.692Z,5.60
2023-11-01T08:49:44.433Z,2.30
2023-11-01T08:50:46.346Z,4.63
2023-11-01T08:51:48.065Z,4.57
2023-11-01T08:52:49.513Z,4.37
2023-11-01T08:53:54.506Z,3.77
2023-11-01T08:55:22.163Z,3.23
2023-11-01T08:56:26.971Z,3.63
2023-11-01T08:57:29.731Z,5.37
2023-11-01T08:58:31.676Z,3.80
2023-11-01T08:59:33.997Z,4.27
2023-11-01T09:00:42.697Z,4.27
2023-11-01T09:01:51.037Z,4.53
2023-11-01T09:02:53.214Z,2.10
2023-11-01T09:03:54.762Z,4.87
2023-11-01T09:04:57.236Z,3.90
2023-11-01T09:05:58.874Z,3.80
2023-11-01T09:07:00.307Z,3.90
2023-11-01T09:08:01.713Z,2.90
2023-11-01T09:09:03.311Z,2.27
2023-11-01T09:10:05.461Z,8.67
2023-11-01T09:11:06.880Z,2.37
2023-11-01T09:12:08.569Z,2.67
2023-11-01T09:13:10.090Z,4.33
2023-11-01T09:14:11.567Z,4.13
2023-11-01T09:15:13.063Z,3.50
2023-11-01T09:16:14.607Z,2.93
2023-11-01T09:17:17.892Z,3.73
2023-11-01T09:18:20.024Z,8.23
2023-11-01T09:19:21.481Z,4.83
2023-11-01T09:20:23.752Z,155.83
2023-11-01T09:21:25.506Z,161.77
2023-11-01T09:22:26.949Z,33.97
2023-11-01T09:23:28.705Z,73.30
2023-11-01T09:24:30.127Z,50.60
2023-11-01T09:25:32.027Z,41.10
2023-11-01T09:26:33.456Z,18.37
2023-11-01T09:27:35.021Z,5.43
2023-11-01T09:28:36.479Z,2.47
2023-11-01T09:29:38.154Z,4.53
2023-11-01T09:30:39.837Z,3.23
2023-11-01T09:31:42.462Z,4.50
2023-11-01T09:32:46.916Z,3.67
2023-11-01T09:33:50.581Z,4.07
2023-11-01T09:34:53.542Z,5.70
2023-11-01T09:35:55.305Z,2.30
2023-11-01T09:36:56.748Z,3.33
2023-11-01T09:37:58.163Z,2.13
2023-11-01T09:38:59.538Z,4.57
2023-11-01T09:40:00.997Z,3.93
2023-11-01T09:41:04.657Z,5.63
2023-11-01T09:42:15.897Z,5.03
2023-11-01T09:43:18.813Z,4.70
2023-11-01T09:44:20.497Z,6.00
2023-11-01T09:45:23.363Z,2.57
2023-11-01T09:46:26.359Z,5.43
2023-11-01T09:47:28.676Z,3.63
2023-11-01T09:48:30.830Z,4.00
2023-11-01T09:49:32.517Z,3.57
2023-11-01T09:50:36.551Z,3.13
2023-11-01T09:51:38.166Z,4.13
2023-11-01T09:52:40.197Z,4.07
2023-11-01T09:53:41.617Z,4.20
2023-11-01T09:54:43.044Z,1.83
2023-11-01T09:55:44.747Z,4.17
2023-11-01T09:56:47.122Z,1.90
2023-11-01T09:57:48.986Z,4.50
2023-11-01T09:58:50.618Z,1.80
2023-11-01T09:59:52.397Z,2.60
2023-11-01T10:00:54.123Z,1.73
2023-11-01T10:01:55.661Z,4.87
2023-11-01T10:02:57.364Z,3.70
2023-11-01T10:03:58.871Z,3.63
2023-11-01T10:05:00.499Z,2.60
2023-11-01T10:06:02.410Z,5.30
2023-11-01T10:07:03.907Z,3.40
2023-11-01T10:08:05.314Z,1.87
2023-11-01T10:09:07.389Z,3.83
2023-11-01T10:10:15.695Z,3.63
2023-11-01T10:11:21.254Z,2.70
2023-11-01T10:12:26.453Z,1.93
2023-11-01T10:13:31.180Z,3.37
2023-11-01T10:14:32.846Z,2.30
2023-11-01T10:15:34.902Z,4.27
2023-11-01T10:16:38.485Z,3.27
2023-11-01T10:17:41.187Z,1.87
2023-11-01T10:18:43.264Z,2.37
2023-11-01T10:19:44.892Z,2.93
2023-11-01T10:20:46.411Z,2.70
2023-11-01T10:21:48.290Z,3.43
2023-11-01T10:22:50.050Z,2.40
2023-11-01T10:23:52.503Z,3.47
2023-11-01T10:24:57.996Z,1.67
2023-11-01T10:26:01.659Z,2.43
2023-11-01T10:27:03.208Z,4.23
2023-11-01T10:28:12.420Z,6.87
2023-11-01T10:29:13.912Z,4.30
2023-11-01T10:30:15.846Z,2.97
2023-11-01T10:31:17.452Z,2.47
2023-11-01T10:32:18.986Z,2.73
2023-11-01T10:33:21.989Z,4.70
2023-11-01T10:34:32.881Z,3.00
2023-11-01T10:35:35.435Z,5.23
2023-11-01T10:36:50.062Z,3.33
2023-11-01T10:37:59.325Z,3.03
2023-11-01T10:39:00.884Z,2.60
2023-11-01T10:40:06.646Z,7.77
2023-11-01T10:41:08.110Z,5.57
2023-11-01T10:42:09.639Z,1.63
2023-11-01T10:43:12.541Z,4.73
2023-11-01T10:44:15.141Z,3.47
2023-11-01T10:45:16.827Z,5.90
2023-11-01T10:46:18.535Z,3.43
2023-11-01T10:47:20.053Z,1.97
2023-11-01T10:48:21.753Z,1.70
2023-11-01T10:49:25.544Z,3.87
2023-11-01T10:50:28.555Z,3.60
2023-11-01T10:51:30.098Z,2.60
2023-11-01T10:52:31.840Z,4.53
2023-11-01T10:53:35.026Z,2.23
2023-11-01T10:54:36.970Z,3.43
2023-11-01T10:55:38.971Z,3.53
2023-11-01T10:56:41.367Z,4.10
2023-11-01T10:57:43.397Z,2.47
2023-11-01T10:58:45.116Z,3.93
2023-11-01T11:00:06.321Z,4.57
2023-11-01T11:01:07.888Z,5.90
2023-11-01T11:02:21.098Z,5.53
2023-11-01T11:03:31.863Z,2.57
2023-11-01T11:04:55.462Z,3.00
2023-11-01T11:05:57.360Z,3.27
2023-11-01T11:07:01.474Z,3.13
2023-11-01T11:08:09.660Z,2.00
2023-11-01T11:09:24.975Z,1.17
2023-11-01T11:10:28.291Z,1.67
2023-11-01T11:11:29.846Z,2.63
2023-11-01T11:12:31.330Z,2.07
2023-11-01T11:13:32.892Z,3.50
2023-11-01T11:14:41.329Z,1.87
2023-11-01T11:16:00.487Z,0.97
2023-11-01T11:17:09.148Z,3.43
2023-11-01T11:18:10.603Z,1.70
2023-11-01T11:19:12.049Z,2.13
2023-11-01T11:20:14.389Z,3.60
2023-11-01T11:21:34.218Z,3.07
2023-11-01T11:22:54.582Z,1.97
2023-11-01T11:23:58.233Z,1.10
2023-11-01T11:24:59.737Z,1.50
2023-11-01T11:26:04.958Z,4.27
2023-11-01T11:27:07.060Z,3.10
2023-11-01T11:28:09.061Z,1.63
2023-11-01T11:29:30.295Z,2.10
2023-11-01T11:30:48.029Z,1.57
2023-11-01T11:31:59.018Z,4.50
2023-11-01T11:33:07.183Z,3.77
2023-11-01T11:34:08.606Z,1.97
2023-11-01T11:35:19.752Z,2.73
2023-11-01T11:36:25.128Z,2.60
2023-11-01T11:37:29.888Z,3.60
2023-11-01T11:38:33.671Z,1.50
2023-11-01T11:39:54.606Z,1.43
2023-11-01T11:41:11.923Z,1.60
2023-11-01T11:42:32.353Z,2.90
2023-11-01T11:43:52.605Z,4.03
2023-11-01T11:45:03.646Z,3.97
2023-11-01T11:46:24.135Z,3.40
2023-11-01T11:47:30.925Z,2.57
2023-11-01T11:48:42.001Z,1.80
2023-11-01T11:49:44.449Z,1.93
2023-11-01T11:50:46.224Z,2.60
2023-11-01T11:52:00.203Z,3.00
2023-11-01T11:53:03.210Z,1.63
2023-11-01T11:54:12.153Z,3.90
2023-11-01T11:55:13.678Z,4.27
2023-11-01T11:56:18.058Z,3.37
2023-11-01T11:57:22.785Z,4.00
2023-11-01T11:58:24.831Z,6.10
2023-11-01T11:59:27.389Z,2.43
2023-11-01T12:00:29.042Z,1.93
2023-11-01T12:01:30.584Z,2.67
2023-11-01T12:02:32.095Z,2.43
2023-11-01T12:03:33.849Z,4.30
2023-11-01T12:04:37.654Z,6.23
2023-11-01T12:05:41.214Z,2.57
2023-11-01T12:06:51.289Z,2.07
2023-11-01T12:07:53.187Z,3.10
2023-11-01T12:08:57.366Z,4.80
2023-11-01T12:09:59.282Z,2.37
2023-11-01T12:11:00.780Z,2.87
2023-11-01T12:12:12.939Z,2.80
2023-11-01T12:13:14.378Z,1.80
2023-11-01T12:14:22.538Z,4.80
2023-11-01T12:15:24.446Z,3.67
2023-11-01T12:16:27.537Z,1.83
2023-11-01T12:17:29.305Z,3.43
2023-11-01T12:18:30.930Z,3.60
2023-11-01T12:19:33.935Z,1.53
2023-11-01T12:20:35.646Z,2.20
2023-11-01T12:21:40.778Z,1.90
2023-11-01T12:22:45.545Z,3.37
2023-11-01T12:23:47.228Z,4.23
2023-11-01T12:24:49.283Z,2.63
2023-11-01T12:25:50.668Z,3.10
2023-11-01T12:27:08.509Z,2.83
2023-11-01T12:28:20.730Z,2.60
2023-11-01T12:29:22.229Z,2.50
2023-11-01T12:30:23.778Z,4.30
2023-11-01T12:31:25.206Z,2.97
2023-11-01T12:32:28.388Z,3.17
2023-11-01T12:33:34.642Z,3.20
2023-11-01T12:34:37.865Z,2.30
2023-11-01T12:35:45.295Z,2.43
2023-11-01T12:36:46.710Z,3.60
2023-11-01T12:37:48.167Z,2.47
2023-11-01T12:38:50.425Z,2.77
2023-11-01T12:40:17.836Z,4.17
2023-11-01T12:41:19.288Z,3.93
2023-11-01T12:42:27.409Z,4.30
2023-11-01T12:43:29.143Z,1.20
2023-11-01T12:44:30.887Z,4.73
2023-11-01T12:45:34.074Z,4.40
2023-11-01T12:46:39.428Z,3.87
2023-11-01T12:47:42.365Z,3.23
2023-11-01T12:48:44.362Z,3.10
2023-11-01T12:49:45.846Z,1.90
2023-11-01T12:50:47.346Z,2.17
2023-11-01T12:51:48.803Z,1.50
2023-11-01T12:52:50.417Z,2.70
2023-11-01T12:53:54.853Z,1.93
2023-11-01T12:54:56.402Z,3.03
2023-11-01T12:55:57.863Z,3.53
2023-11-01T12:56:59.832Z,4.20
2023-11-01T12:58:02.515Z,4.43
2023-11-01T12:59:04.144Z,3.60
2023-11-01T13:00:06.530Z,3.10
2023-11-01T13:01:08.320Z,2.47
2023-11-01T13:02:09.905Z,2.33
2023-11-01T13:03:11.495Z,1.97
2023-11-01T13:04:13.940Z,2.40
2023-11-01T13:05:16.390Z,3.63
2023-11-01T13:06:19.550Z,2.07
2023-11-01T13:07:21.047Z,2.20
2023-11-01T13:08:23.453Z,1.97
2023-11-01T13:09:28.348Z,3.87
2023-11-01T13:10:29.851Z,3.90
2023-11-01T13:11:31.461Z,1.97
2023-11-01T13:12:32.943Z,3.13
2023-11-01T13:13:34.536Z,3.07
2023-11-01T13:14:36.163Z,1.90
2023-11-01T13:15:37.687Z,2.50
2023-11-01T13:16:39.257Z,3.07
2023-11-01T13:17:40.894Z,2.87
2023-11-01T13:18:42.433Z,3.20
2023-11-01T13:19:43.930Z,2.87
2023-11-01T13:20:45.518Z,3.60
2023-11-01T13:21:47.152Z,3.93
2023-11-01T13:22:48.863Z,3.00
2023-11-01T13:23:50.919Z,2.30
2023-11-01T13:24:52.445Z,4.43
2023-11-01T13:25:53.865Z,5.70
2023-11-01T13:26:55.389Z,5.23
2023-11-01T13:27:57.166Z,3.00
2023-11-01T13:28:58.646Z,1.77
2023-11-01T13:30:00.283Z,2.70
2023-11-01T13:31:01.918Z,5.13
2023-11-01T13:32:03.714Z,2.90
2023-11-01T13:33:05.601Z,4.07
2023-11-01T13:34:07.108Z,5.57
2023-11-01T13:35:08.728Z,3.57
2023-11-01T13:36:10.695Z,3.97
2023-11-01T13:37:15.013Z,3.67
2023-11-01T13:38:16.463Z,2.10
2023-11-01T13:39:17.924Z,9.60
2023-11-01T13:40:19.322Z,6.73
2023-11-01T13:41:20.809Z,5.53
2023-11-01T13:42:22.181Z,4.60
2023-11-01T13:43:23.659Z,7.47
2023-11-01T13:44:25.228Z,6.17
2023-11-01T13:45:26.679Z,3.47
2023-11-01T13:46:28.131Z,4.03
2023-11-01T13:47:32.048Z,4.37
2023-11-01T13:48:34.365Z,3.80
2023-11-01T13:49:39.990Z,3.77
2023-11-01T13:50:43.012Z,6.13
2023-11-01T13:51:44.577Z,2.97
2023-11-01T13:52:46.074Z,4.93
2023-11-01T13:53:47.591Z,4.00